createdAt,value
2023-05-16T00:02:11.753Z,10.57
2023-05-16T00:04:39.754Z,12.17
2023-05-16T00:07:07.908Z,11.80
2023-05-16T00:09:55.510Z,14.27
2023-05-16T00:12:23.397Z,16.07
2023-05-16T00:14:51.448Z,14.10
2023-05-16T00:17:20.976Z,10.90
2023-05-16T00:19:49.046Z,22.03
2023-05-16T00:22:17.114Z,11.27
2023-05-16T00:24:45.091Z,13.43
2023-05-16T00:27:13.051Z,13.67
2023-05-16T00:29:40.917Z,13.17
2023-05-16T00:32:09.601Z,12.20
2023-05-16T00:34:39.084Z,13.47
2023-05-16T00:37:07.035Z,14.73
2023-05-16T00:39:34.870Z,14.33
2023-05-16T00:42:02.790Z,12.03
2023-05-16T00:44:51.273Z,17.27
2023-05-16T00:47:38.546Z,10.47
2023-05-16T00:50:09.095Z,14.57
2023-05-16T00:52:37.127Z,10.90
2023-05-16T00:55:06.160Z,14.00
2023-05-16T00:57:35.640Z,11.70
2023-05-16T01:00:05.617Z,10.63
2023-05-16T01:02:36.284Z,16.13
2023-05-16T01:05:05.254Z,13.53
2023-05-16T01:07:34.493Z,11.37
2023-05-16T01:10:03.478Z,8.27
2023-05-16T01:12:38.410Z,8.67
2023-05-16T01:15:11.335Z,10.07
2023-05-16T01:17:54.329Z,13.03
2023-05-16T01:20:34.417Z,15.97
2023-05-16T01:23:20.536Z,14.10
2023-05-16T01:26:15.731Z,10.90
2023-05-16T01:28:46.346Z,15.80
2023-05-16T01:31:14.416Z,12.70
2023-05-16T01:33:42.480Z,11.03
2023-05-16T01:36:17.862Z,15.07
2023-05-16T01:38:53.382Z,12.50
2023-05-16T01:41:28.756Z,12.03
2023-05-16T01:44:01.348Z,14.17
2023-05-16T01:46:34.889Z,12.47
2023-05-16T01:49:16.642Z,12.20
2023-05-16T01:51:50.981Z,13.50
2023-05-16T01:54:44.033Z,12.83
2023-05-16T01:57:14.790Z,10.80
2023-05-16T01:59:43.799Z,9.70
2023-05-16T02:02:11.703Z,11.27
2023-05-16T02:04:39.590Z,11.77
2023-05-16T02:07:07.525Z,11.07
2023-05-16T02:09:35.510Z,12.93
2023-05-16T02:12:04.542Z,12.37
2023-05-16T02:14:33.952Z,10.00
2023-05-16T02:17:01.918Z,11.63
2023-05-16T02:19:29.881Z,10.57
2023-05-16T02:21:57.865Z,9.93
2023-05-16T02:24:25.946Z,11.93
2023-05-16T02:26:56.537Z,11.10
2023-05-16T02:29:24.488Z,12.07
2023-05-16T02:31:54.230Z,10.27
2023-05-16T02:34:22.155Z,10.50
2023-05-16T02:36:50.070Z,8.10
2023-05-16T02:39:17.959Z,11.10
2023-05-16T02:41:45.926Z,10.10
2023-05-16T02:44:13.855Z,9.53
2023-05-16T02:46:42.966Z,12.37
2023-05-16T02:49:12.592Z,11.37
2023-05-16T02:51:40.525Z,12.07
2023-05-16T02:54:09.773Z,12.17
2023-05-16T02:56:37.748Z,13.87
2023-05-16T02:59:06.347Z,10.70
2023-05-16T03:01:34.491Z,13.30
2023-05-16T03:04:23.680Z,8.47
2023-05-16T03:06:52.100Z,13.13
2023-05-16T03:09:20.074Z,10.80
2023-05-16T03:11:48.011Z,11.60
2023-05-16T03:14:15.867Z,15.60
2023-05-16T03:16:44.315Z,14.17
2023-05-16T03:19:12.395Z,11.00
2023-05-16T03:21:41.579Z,14.37
2023-05-16T03:24:09.901Z,10.40
2023-05-16T03:26:37.831Z,8.93
2023-05-16T03:29:05.674Z,15.03
2023-05-16T03:31:33.984Z,12.97
2023-05-16T03:34:01.953Z,11.70
2023-05-16T03:36:30.402Z,9.33
2023-05-16T03:38:59.721Z,10.13
2023-05-16T03:41:27.648Z,11.43
2023-05-16T03:43:55.801Z,12.30
2023-05-16T03:46:23.897Z,10.73
2023-05-16T03:48:51.890Z,9.70
2023-05-16T03:51:19.830Z,10.57
2023-05-16T03:53:47.949Z,16.27
2023-05-16T03:56:17.406Z,12.47
2023-05-16T03:58:45.304Z,9.33
2023-05-16T04:01:13.223Z,9.13
2023-05-16T04:03:41.063Z,13.97
2023-05-16T04:06:09.259Z,13.07
2023-05-16T04:08:39.402Z,10.20
2023-05-16T04:11:07.299Z,8.93
2023-05-16T04:13:36.536Z,7.90
2023-05-16T04:16:04.600Z,8.73
2023-05-16T04:18:32.584Z,10.73
2023-05-16T04:21:00.527Z,10.87
2023-05-16T04:23:28.371Z,11.33
2023-05-16T04:25:56.872Z,11.13
2023-05-16T04:28:24.834Z,11.27
2023-05-16T04:30:54.426Z,10.47
2023-05-16T04:33:22.365Z,12.13
2023-05-16T04:35:50.317Z,11.37
2023-05-16T04:38:18.192Z,10.87
2023-05-16T04:40:46.081Z,10.70
2023-05-16T04:43:13.984Z,10.30
2023-05-16T04:45:42.754Z,10.93
2023-05-16T04:48:12.557Z,10.30
2023-05-16T04:50:40.394Z,12.50
2023-05-16T04:55:55.186Z,11.37
2023-05-16T04:58:24.121Z,11.23
2023-05-16T05:00:52.882Z,10.67
2023-05-16T05:03:22.279Z,13.73
2023-05-16T05:05:50.328Z,9.63
2023-05-16T05:08:18.950Z,9.93
2023-05-16T05:10:46.863Z,13.87
2023-05-16T05:13:14.779Z,11.27
2023-05-16T05:15:42.697Z,8.83
2023-05-16T05:18:10.830Z,10.43
2023-05-16T05:20:40.206Z,7.17
2023-05-16T05:23:08.242Z,11.57
2023-05-16T05:25:37.852Z,12.73
2023-05-16T05:28:06.172Z,7.23
2023-05-16T05:30:51.981Z,13.33
2023-05-16T05:33:19.926Z,14.27
2023-05-16T05:35:49.321Z,13.17
2023-05-16T05:38:17.180Z,11.77
2023-05-16T05:41:05.532Z,10.57
2023-05-16T05:43:33.947Z,10.97
2023-05-16T05:46:01.935Z,13.70
2023-05-16T05:48:30.353Z,15.03
2023-05-16T05:50:59.553Z,15.13
2023-05-16T05:53:27.531Z,10.93
2023-05-16T05:55:55.462Z,7.27
2023-05-16T05:58:23.574Z,9.53
2023-05-16T06:00:51.510Z,13.87
2023-05-16T06:03:21.290Z,9.27
2023-05-16T06:05:49.405Z,10.37
2023-05-16T06:08:18.749Z,11.30
2023-05-16T06:10:46.814Z,8.97
2023-05-16T06:13:14.760Z,11.30
2023-05-16T06:15:42.638Z,9.07
2023-05-16T06:18:10.619Z,9.07
2023-05-16T06:20:38.493Z,9.10
2023-05-16T06:23:06.367Z,8.43
2023-05-16T06:25:35.690Z,9.63
2023-05-16T06:28:24.100Z,7.13
2023-05-16T06:30:52.621Z,8.33
2023-05-16T06:33:20.625Z,10.00
2023-05-16T06:35:48.739Z,6.43
2023-05-16T06:38:16.747Z,9.07
2023-05-16T06:40:46.398Z,6.03
2023-05-16T06:43:14.349Z,6.13
2023-05-16T06:45:42.383Z,8.70
2023-05-16T06:48:10.342Z,9.77
2023-05-16T06:50:38.308Z,7.97
2023-05-16T06:53:07.363Z,9.90
2023-05-16T06:55:35.500Z,8.03
2023-05-16T06:58:04.818Z,6.80
2023-05-16T07:00:32.950Z,5.60
2023-05-16T07:03:01.019Z,6.43
2023-05-16T07:05:29.232Z,7.60
2023-05-16T07:07:57.298Z,7.70
2023-05-16T07:10:25.783Z,6.93
2023-05-16T07:12:53.737Z,8.37
2023-05-16T07:15:23.430Z,7.77
2023-05-16T07:17:51.792Z,7.50
2023-05-16T07:20:19.742Z,11.03
2023-05-16T07:22:47.740Z,8.50
2023-05-16T07:25:16.158Z,6.87
2023-05-16T07:27:45.255Z,4.93
2023-05-16T07:30:14.718Z,8.63
2023-05-16T07:32:44.394Z,10.47
2023-05-16T07:35:13.215Z,6.53
2023-05-16T07:37:42.769Z,5.97
2023-05-16T07:40:11.667Z,7.77
2023-05-16T07:42:39.685Z,6.47
2023-05-16T07:45:08.641Z,8.03
2023-05-16T07:47:36.924Z,4.80
2023-05-16T07:50:06.976Z,7.07
2023-05-16T07:52:35.045Z,6.07
2023-05-16T07:55:02.972Z,6.30
2023-05-16T07:57:31.078Z,7.00
2023-05-16T07:59:59.106Z,7.97
2023-05-16T08:02:30.698Z,7.93
2023-05-16T08:04:59.094Z,6.97
2023-05-16T08:07:28.395Z,7.67
2023-05-16T08:09:56.333Z,7.70
2023-05-16T08:12:26.968Z,5.57
2023-05-16T08:15:14.790Z,6.63
2023-05-16T08:17:42.879Z,6.33
2023-05-16T08:20:11.774Z,6.13
2023-05-16T08:22:41.063Z,4.43
2023-05-16T08:25:09.628Z,4.03
2023-05-16T08:27:37.611Z,5.63
2023-05-16T08:30:06.497Z,3.03
2023-05-16T08:32:34.403Z,5.37
2023-05-16T08:35:02.816Z,8.13
2023-05-16T08:37:30.802Z,3.30
2023-05-16T08:40:00.529Z,4.33
2023-05-16T08:42:28.491Z,4.53
2023-05-16T08:44:56.462Z,5.83
2023-05-16T08:47:27.880Z,4.50
2023-05-16T08:49:58.703Z,8.30
2023-05-16T08:52:29.965Z,5.00
2023-05-16T08:57:34.578Z,3.17
2023-05-16T09:00:11.405Z,5.03
2023-05-16T09:02:40.512Z,5.37
2023-05-16T09:05:11.847Z,3.37
2023-05-16T09:07:40.495Z,5.07
2023-05-16T09:10:11.191Z,6.27
2023-05-16T09:12:39.998Z,3.33
2023-05-16T09:15:09.719Z,4.40
2023-05-16T09:17:41.353Z,5.83
2023-05-16T09:20:14.269Z,5.70
2023-05-16T09:22:51.853Z,2.90
2023-05-16T09:28:13.288Z,5.13
2023-05-16T09:30:42.113Z,3.03
2023-05-16T09:33:10.110Z,5.77
2023-05-16T09:38:15.582Z,5.67
2023-05-16T09:40:45.842Z,3.27
2023-05-16T09:43:36.384Z,2.97
2023-05-16T09:46:05.406Z,4.50
2023-05-16T09:48:34.179Z,3.73
2023-05-16T09:51:04.694Z,3.53
2023-05-16T09:53:33.882Z,5.70
2023-05-16T09:56:08.268Z,5.50
2023-05-16T09:58:37.956Z,4.60
2023-05-16T10:01:07.151Z,5.73
2023-05-16T10:03:37.258Z,3.10
2023-05-16T10:06:06.698Z,5.73
2023-05-16T10:08:36.692Z,9.67
2023-05-16T10:13:54.065Z,4.60
2023-05-16T10:16:24.198Z,4.00
2023-05-16T10:18:53.351Z,4.30
2023-05-16T10:21:24.317Z,3.53
2023-05-16T10:23:53.496Z,5.03
2023-05-16T10:26:24.591Z,4.40
2023-05-16T10:28:53.484Z,2.83
2023-05-16T10:31:22.372Z,4.17
2023-05-16T10:33:50.620Z,5.80
2023-05-16T10:36:19.025Z,4.73
2023-05-16T10:38:48.649Z,5.97
2023-05-16T10:41:17.561Z,5.50
2023-05-16T10:43:57.827Z,5.73
2023-05-16T10:46:27.544Z,5.13
2023-05-16T10:48:57.227Z,6.13
2023-05-16T10:51:39.447Z,2.07
2023-05-16T10:54:09.848Z,2.23
2023-05-16T10:56:38.302Z,2.13
2023-05-16T10:59:24.144Z,3.97
2023-05-16T11:02:13.355Z,5.00
2023-05-16T11:04:49.405Z,2.67
2023-05-16T11:07:19.550Z,5.03
2023-05-16T11:09:54.002Z,7.00
2023-05-16T11:12:22.104Z,3.23
2023-05-16T11:14:53.050Z,5.40
2023-05-16T11:17:23.242Z,2.00
2023-05-16T11:19:53.017Z,7.37
2023-05-16T11:22:26.590Z,7.50
2023-05-16T11:24:57.090Z,3.83
2023-05-16T11:27:27.807Z,2.53
2023-05-16T11:30:03.311Z,4.60
2023-05-16T11:32:34.631Z,3.03
2023-05-16T11:35:03.802Z,2.77
2023-05-16T11:37:31.957Z,5.50
2023-05-16T11:40:01.632Z,3.90
2023-05-16T11:42:33.745Z,3.50
2023-05-16T11:45:14.093Z,3.63
2023-05-16T11:47:43.121Z,4.23
2023-05-16T11:50:14.419Z,2.93
2023-05-16T11:52:46.033Z,3.77
2023-05-16T11:55:21.487Z,5.23
2023-05-16T11:57:57.997Z,3.63
2023-05-16T12:00:28.465Z,3.90
2023-05-16T12:03:20.966Z,3.27
2023-05-16T12:05:53.404Z,4.13
2023-05-16T12:08:22.505Z,5.57
2023-05-16T12:10:51.633Z,5.90
2023-05-16T12:13:21.028Z,5.77
2023-05-16T12:15:50.683Z,3.63
2023-05-16T12:18:18.894Z,6.57
2023-05-16T12:20:48.090Z,3.13
2023-05-16T12:23:16.036Z,3.10
2023-05-16T12:25:47.604Z,6.40
2023-05-16T12:28:16.214Z,4.70
2023-05-16T12:31:03.779Z,3.47
2023-05-16T12:33:38.626Z,3.77
2023-05-16T12:36:14.428Z,4.83
2023-05-16T12:38:43.240Z,2.93
2023-05-16T12:41:11.175Z,4.67
2023-05-16T12:43:39.090Z,4.07
2023-05-16T12:46:12.755Z,4.90
2023-05-16T12:48:44.064Z,4.33
2023-05-16T12:51:14.737Z,4.17
2023-05-16T12:53:54.453Z,5.30
2023-05-16T12:56:29.801Z,5.50
2023-05-16T12:58:57.699Z,2.37
2023-05-16T13:01:25.599Z,6.07
2023-05-16T13:03:55.026Z,5.67
2023-05-16T13:06:23.057Z,7.70
2023-05-16T13:08:51.022Z,3.40
2023-05-16T13:11:19.106Z,4.47
2023-05-16T13:13:47.055Z,5.37
2023-05-16T13:16:15.062Z,6.03
2023-05-16T13:18:43.100Z,5.77
2023-05-16T13:21:12.346Z,5.40
2023-05-16T13:23:40.313Z,5.43
2023-05-16T13:26:08.278Z,3.77
2023-05-16T13:28:36.394Z,5.83
2023-05-16T13:31:04.596Z,3.27
2023-05-16T13:33:52.004Z,4.63
2023-05-16T13:36:21.271Z,5.27
2023-05-16T13:38:49.195Z,3.80
2023-05-16T13:41:17.136Z,4.67
2023-05-16T13:43:45.010Z,3.40
2023-05-16T13:46:13.088Z,5.30
2023-05-16T13:48:42.514Z,5.00
2023-05-16T13:51:11.354Z,3.67
2023-05-16T13:53:40.655Z,3.67
2023-05-16T13:56:08.666Z,3.10
2023-05-16T13:58:43.018Z,3.10
2023-05-16T14:01:21.353Z,5.60
2023-05-16T14:03:49.369Z,5.07
2023-05-16T14:06:17.477Z,5.90
2023-05-16T14:08:46.808Z,3.47
2023-05-16T14:11:15.470Z,2.40
2023-05-16T14:13:43.360Z,3.13
2023-05-16T14:16:11.317Z,4.10
2023-05-16T14:18:58.637Z,4.37
2023-05-16T14:21:26.796Z,6.40
2023-05-16T14:23:56.299Z,7.60
2023-05-16T14:26:25.355Z,4.47
2023-05-16T14:28:53.528Z,3.97
2023-05-16T14:31:21.812Z,4.90
2023-05-16T14:33:50.396Z,4.17
2023-05-16T14:36:18.318Z,5.93
2023-05-16T14:38:46.220Z,2.40
2023-05-16T14:41:15.755Z,5.53
2023-05-16T14:43:43.793Z,4.40
2023-05-16T14:48:58.845Z,5.77
2023-05-16T14:51:26.858Z,5.20
2023-05-16T14:53:55.013Z,5.60
2023-05-16T14:56:27.992Z,5.67
2023-05-16T14:58:55.959Z,4.40
2023-05-16T15:01:23.925Z,4.87
2023-05-16T15:03:55.771Z,4.80
2023-05-16T15:06:24.499Z,5.17
2023-05-16T15:08:52.523Z,2.90
2023-05-16T15:11:21.609Z,4.90
2023-05-16T15:13:50.828Z,4.93
2023-05-16T15:16:18.745Z,2.73
2023-05-16T15:18:46.887Z,3.57
2023-05-16T15:21:14.915Z,1.77
2023-05-16T15:23:43.340Z,5.03
2023-05-16T15:26:11.454Z,4.57
2023-05-16T15:28:39.373Z,3.23
2023-05-16T15:31:26.963Z,2.40
2023-05-16T15:33:55.282Z,3.97
2023-05-16T15:39:10.716Z,3.40
2023-05-16T15:42:05.147Z,4.97
2023-05-16T15:44:26.560Z,4.53
2023-05-16T15:46:55.778Z,2.17
2023-05-16T15:49:23.677Z,6.17
2023-05-16T15:51:52.192Z,4.27
2023-05-16T15:54:39.830Z,3.83
2023-05-16T15:57:07.786Z,4.33
2023-05-16T15:59:35.746Z,6.90
2023-05-16T16:02:05.535Z,3.00
2023-05-16T16:04:33.674Z,4.30
2023-05-16T16:07:01.812Z,3.03
2023-05-16T16:09:29.724Z,4.27
2023-05-16T16:11:57.769Z,5.53
2023-05-16T16:14:25.771Z,4.53
2023-05-16T16:16:53.750Z,4.03
2023-05-16T16:19:23.466Z,4.43
2023-05-16T16:21:51.648Z,4.07
2023-05-16T16:24:20.175Z,5.17
2023-05-16T16:26:48.251Z,3.47
2023-05-16T16:29:16.280Z,4.27
2023-05-16T16:31:44.444Z,4.30
2023-05-16T16:34:12.438Z,5.17
2023-05-16T16:36:42.100Z,2.47
2023-05-16T16:39:10.229Z,3.97
2023-05-16T16:41:38.277Z,4.23
2023-05-16T16:44:06.667Z,4.00
2023-05-16T16:46:35.057Z,4.67
2023-05-16T16:49:03.257Z,4.97
2023-05-16T16:51:32.172Z,2.10
2023-05-16T16:54:40.049Z,3.40
2023-05-16T16:57:07.956Z,1.57
2023-05-16T16:59:35.956Z,5.17
2023-05-16T17:02:04.042Z,2.13
2023-05-16T17:04:34.910Z,3.70
2023-05-16T17:07:02.968Z,4.23
2023-05-16T17:09:30.856Z,3.07
2023-05-16T17:12:04.510Z,2.47
2023-05-16T17:14:32.475Z,3.00
2023-05-16T17:17:00.502Z,3.20
2023-05-16T17:19:28.722Z,3.20
2023-05-16T17:21:56.800Z,4.30
2023-05-16T17:24:24.696Z,2.27
2023-05-16T17:26:52.834Z,3.87
2023-05-16T17:29:22.162Z,2.33
2023-05-16T17:31:50.071Z,2.57
2023-05-16T17:34:17.933Z,4.17
2023-05-16T17:36:46.529Z,3.40
2023-05-16T17:39:14.926Z,3.53
2023-05-16T17:42:03.049Z,4.60
2023-05-16T17:44:32.700Z,2.50
2023-05-16T17:47:00.652Z,3.87
2023-05-16T17:49:28.619Z,3.33
2023-05-16T17:51:58.102Z,3.60
2023-05-16T17:54:30.565Z,2.37
2023-05-16T17:57:00.042Z,2.00
2023-05-16T17:59:28.402Z,5.67
2023-05-16T18:01:58.626Z,3.63
2023-05-16T18:04:29.629Z,4.50
2023-05-16T18:06:58.105Z,5.40
2023-05-16T18:09:26.438Z,2.90
2023-05-16T18:11:54.416Z,3.83
2023-05-16T18:14:22.463Z,4.73
2023-05-16T18:17:11.184Z,2.87
2023-05-16T18:19:39.228Z,3.53
2023-05-16T18:22:08.562Z,3.57
2023-05-16T18:24:37.495Z,3.10
2023-05-16T18:27:05.876Z,5.20
2023-05-16T18:29:34.291Z,4.63
2023-05-16T18:32:02.465Z,4.90
2023-05-16T18:34:31.776Z,4.37
2023-05-16T18:36:59.690Z,6.90
2023-05-16T18:39:27.770Z,7.37
2023-05-16T18:41:56.505Z,3.33
2023-05-16T18:44:24.369Z,8.87
2023-05-16T18:46:52.381Z,11.27
2023-05-16T18:49:20.516Z,3.70
2023-05-16T18:51:49.928Z,10.10
2023-05-16T18:54:17.862Z,4.33
2023-05-16T18:56:45.896Z,8.97
2023-05-16T18:59:13.985Z,7.93
2023-05-16T19:01:41.937Z,5.73
2023-05-16T19:04:09.985Z,4.80
2023-05-16T19:06:38.448Z,4.03
2023-05-16T19:09:09.129Z,5.10
2023-05-16T19:11:37.837Z,4.17
2023-05-16T19:14:05.887Z,5.60
2023-05-16T19:16:34.129Z,5.60
2023-05-16T19:19:03.174Z,5.53
2023-05-16T19:21:31.194Z,3.77
2023-05-16T19:23:59.129Z,4.23
2023-05-16T19:26:29.393Z,5.40
2023-05-16T19:28:57.418Z,6.20
2023-05-16T19:31:25.417Z,6.23
2023-05-16T19:33:53.388Z,10.60
2023-05-16T19:36:21.396Z,5.97
2023-05-16T19:38:49.418Z,7.37
2023-05-16T19:41:17.844Z,7.23
2023-05-16T19:43:47.139Z,8.17
2023-05-16T19:49:02.049Z,5.27
2023-05-16T19:51:40.903Z,8.90
2023-05-16T19:54:29.710Z,6.43
2023-05-16T19:56:57.800Z,7.50
2023-05-16T19:59:31.318Z,9.33
2023-05-16T20:01:59.529Z,7.23
2023-05-16T20:04:28.063Z,7.63
2023-05-16T20:06:56.102Z,7.83
2023-05-16T20:09:24.047Z,6.37
2023-05-16T20:11:53.435Z,5.20
2023-05-16T20:14:21.387Z,11.17
2023-05-16T20:16:51.423Z,5.33
2023-05-16T20:19:19.541Z,5.63
2023-05-16T20:21:47.580Z,6.33
2023-05-16T20:24:15.729Z,6.57
2023-05-16T20:26:43.654Z,11.57
2023-05-16T20:29:11.979Z,6.60
2023-05-16T20:31:41.163Z,9.43
2023-05-16T20:34:11.169Z,7.77
2023-05-16T20:36:39.171Z,9.53
2023-05-16T20:39:08.956Z,5.37
2023-05-16T20:41:36.945Z,8.03
2023-05-16T20:44:06.117Z,8.60
2023-05-16T20:46:34.416Z,7.83
2023-05-16T20:49:02.370Z,8.20
2023-05-16T20:51:31.930Z,5.53
2023-05-16T20:53:59.897Z,9.07
2023-05-16T20:56:27.787Z,6.30
2023-05-16T20:58:55.620Z,10.13
2023-05-16T21:01:23.553Z,7.90
2023-05-16T21:03:51.520Z,9.50
2023-05-16T21:06:19.422Z,6.10
2023-05-16T21:08:48.670Z,6.33
2023-05-16T21:11:16.565Z,7.13
2023-05-16T21:13:44.461Z,4.90
2023-05-16T21:16:13.076Z,7.83
2023-05-16T21:18:41.151Z,5.37
2023-05-16T21:21:09.212Z,6.20
2023-05-16T21:23:37.085Z,8.67
2023-05-16T21:26:06.769Z,8.70
2023-05-16T21:28:39.660Z,8.30
2023-05-16T21:31:14.090Z,7.50
2023-05-16T21:33:42.098Z,8.30
2023-05-16T21:36:10.463Z,7.03
2023-05-16T21:38:38.449Z,5.90
2023-05-16T21:41:07.804Z,9.20
2023-05-16T21:43:35.893Z,6.30
2023-05-16T21:46:03.828Z,9.47
2023-05-16T21:48:31.863Z,7.27
2023-05-16T21:50:59.833Z,6.63
2023-05-16T21:53:27.783Z,8.77
2023-05-16T21:55:55.703Z,6.83
2023-05-16T21:58:25.209Z,5.63
2023-05-16T22:00:53.430Z,8.53
2023-05-16T22:03:21.480Z,5.80
2023-05-16T22:05:49.636Z,6.53
2023-05-16T22:08:17.558Z,6.27
2023-05-16T22:10:45.524Z,7.50
2023-05-16T22:13:13.459Z,7.17
2023-05-16T22:15:46.699Z,5.77
2023-05-16T22:18:20.360Z,8.13
2023-05-16T22:20:48.389Z,8.37
2023-05-16T22:23:35.715Z,5.80
2023-05-16T22:26:22.112Z,5.80
2023-05-16T22:28:50.014Z,8.83
2023-05-16T22:31:19.321Z,7.40
2023-05-16T22:33:47.333Z,12.83
2023-05-16T22:36:15.495Z,6.53
2023-05-16T22:38:43.441Z,8.47
2023-05-16T22:41:11.425Z,6.07
2023-05-16T22:43:39.527Z,6.83
2023-05-16T22:46:07.752Z,6.63
2023-05-16T22:48:37.084Z,5.90
2023-05-16T22:51:05.255Z,5.23
2023-05-16T22:53:33.211Z,7.77
2023-05-16T22:56:01.201Z,9.27
2023-05-16T22:58:29.159Z,6.33
2023-05-16T23:00:57.926Z,8.50
2023-05-16T23:03:27.641Z,8.33
2023-05-16T23:05:57.128Z,8.70
2023-05-16T23:08:25.093Z,7.00
2023-05-16T23:10:52.959Z,5.67
2023-05-16T23:13:20.842Z,8.80
2023-05-16T23:15:48.737Z,6.77
2023-05-16T23:18:16.713Z,7.53
2023-05-16T23:20:44.740Z,8.47
2023-05-16T23:23:14.022Z,7.50
2023-05-16T23:25:41.984Z,6.63
2023-05-16T23:28:10.079Z,10.57
2023-05-16T23:30:38.097Z,7.07
2023-05-16T23:33:06.044Z,6.77
2023-05-16T23:35:34.184Z,7.93
2023-05-16T23:38:25.592Z,8.10
2023-05-16T23:40:53.527Z,7.97
2023-05-16T23:43:21.504Z,7.93
2023-05-16T23:45:49.455Z,9.17
2023-05-16T23:48:17.522Z,7.27
2023-05-16T23:50:45.488Z,6.13
2023-05-16T23:53:13.592Z,11.80
2023-05-16T23:55:42.835Z,6.27
2023-05-16T23:58:10.849Z,6.17
